• pl
  • eng

Awiacja
WIADOMOŚCI
ostatnia aktualizacja: 17.04.2020 19:04
Szanowni Państwo,

mając na uwadze sytuację związaną z pandemią wywołaną koronawirusem SARS-Cov-2 oraz w trosce o bezpieczeństwo Państwa oraz naszych pracowników, IMGW-PIB podjął decyzję o przeniesieniu kolejnej edycji Szkoły Meteorologii Lotniczej na przyszły rok. W tej chwili podanie dokładnego terminu szkoły nie jest możliwe, ale jak tylko będzie znany zostanie ogłoszony na naszych stronach internetowych, do których śledzenia serdecznie zapraszamy.

TAF dla lotnisk wojskowych 18:30 28.11.2020

TAF EPCE 281700Z 2818/2903 36006KT 9999 BKN023 TEMPO 2818/2903 7000
SHRA BKN015TCU PROB30 TEMPO 2818/2903 4000 SHSNRA BR BKN006
BKN011CB=

TAF EPDA 281700Z 2818/2903 04006KT 9999 BKN025 TEMPO 2818/2903 SHRA
BKN020TCU PROB30 TEMPO 2822/2903 4000 SHRASN=

TAF EPKS 281700Z 2818/2903 33006KT 9999 BKN020
TEMPO 2900/2903 5000 -RA BR BKN010=

TAF EPLK 281700Z 2818/2903 36007KT 9999 SCT020 BKN034
TEMPO 2819/2903 -SNRA BKN015
PROB30 TEMPO 2819/2903 2000 RASN BKN006 BKN010=

TAF EPLY 281700Z 2818/2903 30006KT 9999 BKN020 TEMPO 2820/2803 3000
-RASN BKN007 BKN010=

TAF COR EPLY 281726Z 2818/2903 30006KT 9999 BKN020 TEMPO 2820/2903
3000 -RASN BKN007 BKN010=

TAF EPMB 281700Z 2818/2903 VRB03KT 9999 SCT015 BKN025
TEMPO 2818/2903 -RA BKN010
BECMG 2822/2824 BKN008=

TAF EPMI 281700Z 2818/2903 33006KT 9999 BKN020
TEMPO 2820/2903 4000 BR BKN010
PROB30 2901/2903 BKN005=

TAF EPMM 281700Z 2818/2903 34006KT 9999 SCT006 BKN018
TEMPO 2818/2903 3000 -SHSNRA BR BKN005 OVC010CB
PROB30 TEMPO 2820/2903 1500 SN BR BKN003=

TAF EPOK 281700Z 2818/2903 03008KT 9999 BKN020 TEMPO 2818/2903 -SHRA
BKN013CB=

TAF EPPW 281700Z 2818/2903 34006KT 9999 BKN025
PROB30 TEMPO 2822/2903 5000 -RA BR BKN010=

TAF EPSN 281700Z 2818/2903 34005KT 9999 BKN020
PROB30 TEMPO 2818/2903 6000 SHRA SCT007 BKN015CB=

TAF AMD EPTM 281800Z 2818/2903 CNL=

TAF AMD EPTM 281800Z 2818/2903 CNL=
Awiacja.imgw.pl jest pogodowym serwisem informacyjnym
Instytutu Meteorologii i Gospodarki Wodnej Państwowego Instytutu Badawczego.
Copyright IMGW PIB 2009-2019© Wszelkie prawa zastrzeżone.